Time;durP1;ratioP1;P1;durP2;ratioP2;P2;SDS_P1;SDS_P2;PMS_P1;PMS_P2;Temp;Humidity;BMP_temperature;BMP_pressure;BME280_temperature;BME280_humidity;BME280_pressure;Samples;Min_cycle;Max_cycle;Signal;HPM_P1;HPM_P2
2021/12/08 00:02:03;;;;;;;7.07;2.38;;;5.50;96.00;;;;;;6163022;23;20008;-88
2021/12/08 00:04:29;;;;;;;5.93;2.80;;;5.40;96.00;;;;;;6191271;23;20001;-88
2021/12/08 00:06:54;;;;;;;4.18;2.40;;;5.40;96.00;;;;;;6200442;23;20012;-88
2021/12/08 00:09:34;;;;;;;5.88;2.67;;;5.40;96.00;;;;;;6210247;23;20005;-88
2021/12/08 00:14:49;;;;;;;9.13;2.38;;;5.50;96.10;;;;;;6214114;23;20027;-88
2021/12/08 00:17:17;;;;;;;5.18;2.30;;;5.50;96.10;;;;;;6205014;23;20008;-88
2021/12/08 00:19:43;;;;;;;4.28;2.30;;;5.50;96.10;;;;;;6200036;23;20007;-87
2021/12/08 00:22:12;;;;;;;7.25;2.53;;;5.50;96.10;;;;;;6189685;23;20032;-87
2021/12/08 00:24:43;;;;;;;4.10;2.30;;;5.50;96.10;;;;;;6187900;23;20008;-88
2021/12/08 00:27:11;;;;;;;3.95;2.05;;;5.50;96.10;;;;;;6162172;23;19997;-88
2021/12/08 00:29:37;;;;;;;6.57;2.50;;;5.50;96.10;;;;;;6186706;23;19997;-88
2021/12/08 00:32:08;;;;;;;8.05;2.53;;;5.50;96.10;;;;;;6186468;23;20012;-88
2021/12/08 00:34:34;;;;;;;6.22;2.67;;;5.50;96.10;;;;;;6138074;23;20176;-89
2021/12/08 00:37:03;;;;;;;10.00;3.20;;;5.50;96.20;;;;;;6187839;23;20012;-89
2021/12/08 00:39:31;;;;;;;5.50;2.58;;;5.50;96.30;;;;;;6161029;23;20001;-87
2021/12/08 00:42:08;;;;;;;3.42;2.10;;;5.40;96.30;;;;;;6187633;23;20443;-87
2021/12/08 00:44:39;;;;;;;5.13;2.50;;;5.50;96.40;;;;;;6138255;23;20582;-88
2021/12/08 00:47:08;;;;;;;5.50;2.38;;;5.50;96.30;;;;;;6188248;23;20039;-90
2021/12/08 00:49:37;;;;;;;7.50;2.50;;;5.50;96.30;;;;;;6185952;23;20017;-88
2021/12/08 00:52:07;;;;;;;6.10;2.22;;;5.50;96.30;;;;;;6187978;23;20012;-89
2021/12/08 00:54:36;;;;;;;5.03;2.65;;;5.50;96.30;;;;;;6161085;23;20011;-88
2021/12/08 00:57:02;;;;;;;7.13;3.00;;;5.60;96.30;;;;;;6161729;23;20446;-88
2021/12/08 00:59:31;;;;;;;4.95;2.60;;;5.60;96.30;;;;;;6160954;23;20095;-87
2021/12/08 01:02:08;;;;;;;6.57;2.45;;;5.60;96.30;;;;;;6187788;23;20007;-88
2021/12/08 01:04:48;;;;;;;6.45;2.92;;;5.60;96.30;;;;;;6161441;23;20012;-88
2021/12/08 01:07:19;;;;;;;4.07;2.33;;;5.60;96.40;;;;;;6161784;23;20038;-88
2021/12/08 01:09:48;;;;;;;5.97;2.70;;;5.60;96.40;;;;;;6163263;23;20001;-87
2021/12/08 01:12:15;;;;;;;4.72;2.55;;;5.60;96.40;;;;;;6162741;23;20083;-87
2021/12/08 01:14:43;;;;;;;3.72;2.40;;;5.60;96.40;;;;;;6162226;23;20080;-88
2021/12/08 01:17:09;;;;;;;5.13;2.25;;;5.60;96.40;;;;;;6162284;23;20005;-88
2021/12/08 01:19:35;;;;;;;3.80;2.22;;;5.70;96.40;;;;;;6186599;23;20090;-89
2021/12/08 01:22:10;;;;;;;5.53;2.45;;;5.70;96.50;;;;;;6162474;23;19997;-88
2021/12/08 01:24:36;;;;;;;5.63;2.50;;;5.70;96.50;;;;;;6162207;23;20005;-89
2021/12/08 01:27:10;;;;;;;3.25;2.20;;;5.70;96.40;;;;;;6162895;23;20063;-88
2021/12/08 01:29:47;;;;;;;5.32;2.30;;;5.70;96.50;;;;;;6160898;23;20514;-86
2021/12/08 01:32:13;;;;;;;5.15;2.00;;;5.70;96.50;;;;;;6161691;23;20055;-87
2021/12/08 01:34:39;;;;;;;4.20;2.05;;;5.80;96.60;;;;;;6187606;23;20040;-89
2021/12/08 01:37:05;;;;;;;4.50;1.92;;;5.80;96.50;;;;;;6162512;23;20016;-87
2021/12/08 01:39:30;;;;;;;5.57;2.15;;;5.80;96.50;;;;;;6187751;23;20075;-87
2021/12/08 01:41:56;;;;;;;2.92;2.05;;;5.80;96.60;;;;;;6188028;23;20001;-90
2021/12/08 01:47:06;;;;;;;4.13;2.10;;;5.90;96.50;;;;;;6211943;23;20040;-88
2021/12/08 01:49:32;;;;;;;5.43;2.00;;;5.90;96.80;;;;;;6178365;23;20013;-86
2021/12/08 01:52:01;;;;;;;6.25;2.05;;;5.90;96.60;;;;;;6162031;23;20008;-89
2021/12/08 01:54:29;;;;;;;3.47;1.85;;;6.00;96.60;;;;;;6161780;23;20415;-89
2021/12/08 01:57:00;;;;;;;3.53;2.13;;;6.00;96.60;;;;;;6161141;23;20028;-88
2021/12/08 01:59:35;;;;;;;3.28;2.17;;;6.00;96.60;;;;;;6161335;23;20080;-89
2021/12/08 02:02:11;;;;;;;3.45;2.08;;;6.00;96.60;;;;;;6186293;23;19997;-87
2021/12/08 02:04:42;;;;;;;5.22;2.38;;;6.10;96.60;;;;;;6187471;23;20024;-88
2021/12/08 02:07:08;;;;;;;3.35;1.60;;;6.10;96.60;;;;;;6161620;23;20001;-89
2021/12/08 02:09:34;;;;;;;4.10;2.00;;;6.10;96.60;;;;;;6161290;23;20001;-88
2021/12/08 02:12:00;;;;;;;3.17;1.70;;;6.10;96.60;;;;;;6161285;23;20028;-88
2021/12/08 02:14:43;;;;;;;4.32;2.10;;;6.20;96.70;;;;;;6160955;23;20020;-89
2021/12/08 02:17:10;;;;;;;4.15;2.45;;;6.20;96.70;;;;;;6137235;23;20013;-88
2021/12/08 02:19:42;;;;;;;3.85;1.83;;;6.20;96.70;;;;;;6163163;23;20060;-87
2021/12/08 02:22:08;;;;;;;3.05;2.00;;;6.30;96.70;;;;;;6163850;23;20100;-88
2021/12/08 02:24:42;;;;;;;2.72;1.70;;;6.30;96.90;;;;;;6163590;23;20415;-89
2021/12/08 02:27:18;;;;;;;3.85;2.05;;;6.30;96.70;;;;;;6163782;23;20319;-88
2021/12/08 02:29:53;;;;;;;3.10;1.88;;;6.40;96.70;;;;;;6163070;23;20334;-89
2021/12/08 02:46:43;;;;;;;3.63;1.60;;;6.40;96.70;;;;;;6189553;23;20035;-88
2021/12/08 02:48:43;;;;;;;3.20;1.65;;;6.50;96.70;;;;;;6193059;23;20016;-88
2021/12/08 02:51:36;;;;;;;3.08;1.88;;;6.50;96.70;;;;;;6170051;23;20072;-87
2021/12/08 02:54:04;;;;;;;2.20;1.77;;;6.50;96.70;;;;;;6189653;23;20001;-86
2021/12/08 02:56:32;;;;;;;3.58;1.90;;;6.60;96.70;;;;;;6162986;23;20091;-87
2021/12/08 02:59:02;;;;;;;3.70;2.00;;;6.60;96.70;;;;;;6188423;23;20479;-87
2021/12/08 03:01:32;;;;;;;2.58;1.73;;;6.60;96.70;;;;;;6188326;23;20319;-87
2021/12/08 03:04:03;;;;;;;4.18;1.98;;;6.60;96.70;;;;;;6162708;23;20013;-88
2021/12/08 03:06:32;;;;;;;5.32;2.10;;;6.60;96.80;;;;;;6188462;23;20005;-87
2021/12/08 03:09:09;;;;;;;4.28;1.80;;;6.60;96.80;;;;;;6138651;23;20087;-88
2021/12/08 03:11:40;;;;;;;3.05;1.92;;;6.60;96.80;;;;;;6162013;23;20012;-87
2021/12/08 03:14:19;;;;;;;2.78;1.83;;;6.60;96.70;;;;;;6214219;23;20005;-86
2021/12/08 03:16:50;;;;;;;4.50;2.10;;;6.60;96.80;;;;;;6214760;23;19989;-89
2021/12/08 03:19:22;;;;;;;3.03;1.80;;;6.60;96.70;;;;;;6210457;23;20009;-88
2021/12/08 03:21:48;;;;;;;3.85;1.90;;;6.60;96.70;;;;;;6163498;23;20059;-87
2021/12/08 03:24:24;;;;;;;5.65;2.10;;;6.60;96.70;;;;;;6187497;23;20371;-88
2021/12/08 03:29:32;;;;;;;2.47;1.35;;;6.60;96.70;;;;;;6188601;23;20096;-88
2021/12/08 03:32:11;;;;;;;3.72;1.77;;;6.60;96.90;;;;;;6186956;23;20008;-88
2021/12/08 03:34:50;;;;;;;4.10;1.70;;;6.60;96.70;;;;;;6187558;23;20139;-87
2021/12/08 03:37:18;;;;;;;4.38;1.42;;;6.60;96.70;;;;;;6162954;23;20549;-88
2021/12/08 03:39:49;;;;;;;2.65;1.80;;;6.60;96.70;;;;;;6187746;23;20076;-88
2021/12/08 03:42:15;;;;;;;;;;;6.60;96.70;;;;;;6188470;23;20036;-88
2021/12/08 03:44:41;;;;;;;3.60;1.60;;;6.60;96.70;;;;;;6188537;23;19900;-87
2021/12/08 03:47:16;;;;;;;3.50;1.40;;;6.60;96.70;;;;;;6187109;23;20005;-88
2021/12/08 03:49:46;;;;;;;3.78;1.70;;;6.60;96.70;;;;;;6188394;23;20498;-87
2021/12/08 03:52:15;;;;;;;3.55;1.80;;;6.60;96.80;;;;;;6189616;23;19997;-88
2021/12/08 03:54:43;;;;;;;5.25;1.42;;;6.60;96.80;;;;;;6192295;23;20005;-87
2021/12/08 03:57:11;;;;;;;1.85;1.20;;;6.70;96.80;;;;;;6166195;23;20001;-88
2021/12/08 03:59:37;;;;;;;2.05;1.20;;;6.60;96.80;;;;;;6163882;23;20009;-88
2021/12/08 04:02:04;;;;;;;4.30;1.40;;;6.70;96.80;;;;;;6188221;23;20001;-88
2021/12/08 04:04:42;;;;;;;2.40;1.08;;;6.70;96.80;;;;;;6186914;23;20057;-89
2021/12/08 04:07:11;;;;;;;2.97;1.50;;;6.70;96.80;;;;;;6190706;23;20347;-86
2021/12/08 04:09:49;;;;;;;3.55;1.23;;;6.80;96.80;;;;;;6189487;23;20001;-87
2021/12/08 04:12:22;;;;;;;3.55;1.23;;;6.80;96.80;;;;;;6190485;23;20037;-87
2021/12/08 04:15:02;;;;;;;3.35;1.30;;;6.80;96.80;;;;;;6162209;23;20096;-88
2021/12/08 04:17:54;;;;;;;3.85;1.38;;;6.80;96.80;;;;;;6162396;23;20060;-86
2021/12/08 04:20:49;;;;;;;3.63;1.52;;;6.80;96.80;;;;;;6165595;23;20032;-87
2021/12/08 04:23:21;;;;;;;3.45;1.17;;;6.80;96.80;;;;;;6166466;23;20005;-88
2021/12/08 04:25:53;;;;;;;3.78;1.27;;;6.80;96.80;;;;;;6187208;23;20001;-87
2021/12/08 04:28:30;;;;;;;5.93;1.40;;;6.90;96.80;;;;;;6187068;23;20004;-88
2021/12/08 04:31:20;;;;;;;5.00;2.00;;;6.90;96.80;;;;;;6186785;23;19997;-88
2021/12/08 04:33:58;;;;;;;;;;;;;;;;;;;;;
2021/12/08 04:36:40;;;;;;;5.43;1.50;;;6.90;96.80;;;;;;6188260;23;20088;-89
2021/12/08 04:39:11;;;;;;;;;;;6.90;96.70;;;;;;6187557;23;20039;-88
2021/12/08 04:41:43;;;;;;;3.65;1.70;;;6.90;96.70;;;;;;6197369;23;19912;-88
2021/12/08 04:52:20;;;;;;;3.63;1.30;;;6.90;96.60;;;;;;6178726;23;20494;-88
2021/12/08 05:08:43;;;;;;;3.47;1.48;;;6.80;96.40;;;;;;6198371;23;20423;-88
2021/12/08 05:11:31;;;;;;;7.50;1.50;;;6.70;96.40;;;;;;6187441;23;20014;-88
2021/12/08 05:14:10;;;;;;;3.53;1.40;;;6.70;96.40;;;;;;6161606;23;20013;-88
2021/12/08 05:16:43;;;;;;;4.15;1.20;;;6.60;96.30;;;;;;6186748;23;20024;-87
2021/12/08 05:19:15;;;;;;;3.33;1.10;;;6.60;96.30;;;;;;6186074;23;20008;-88
2021/12/08 05:22:18;;;;;;;4.50;1.30;;;6.60;96.30;;;;;;6161307;23;20005;-86
2021/12/08 05:24:53;;;;;;;3.28;1.02;;;6.60;96.30;;;;;;6162346;23;20008;-87
2021/12/08 05:27:26;;;;;;;7.00;1.50;;;6.60;96.30;;;;;;6187618;23;20001;-86
2021/12/08 05:30:05;;;;;;;3.38;1.40;;;6.60;96.20;;;;;;6186850;23;20005;-88
2021/12/08 05:32:31;;;;;;;6.47;1.85;;;6.60;96.30;;;;;;6186529;23;20001;-88
2021/12/08 05:35:01;;;;;;;3.05;1.30;;;6.50;96.20;;;;;;6185666;23;20075;-87
2021/12/08 05:37:32;;;;;;;7.78;1.77;;;6.50;96.20;;;;;;6185914;23;20013;-88
2021/12/08 05:39:58;;;;;;;2.92;1.42;;;6.50;96.20;;;;;;6161007;23;20071;-88
2021/12/08 05:42:35;;;;;;;4.30;1.45;;;6.50;96.20;;;;;;6185325;23;20016;-87
2021/12/08 05:45:10;;;;;;;4.45;1.40;;;6.50;96.20;;;;;;6161072;23;20005;-87
2021/12/08 05:47:46;;;;;;;7.05;1.55;;;6.40;96.10;;;;;;6185757;23;20059;-88
2021/12/08 05:50:21;;;;;;;3.47;1.38;;;6.50;96.20;;;;;;6185341;23;20427;-88
2021/12/08 05:53:02;;;;;;;5.15;1.50;;;6.50;96.10;;;;;;6187262;23;20319;-88
2021/12/08 05:55:33;;;;;;;4.55;1.50;;;6.40;96.10;;;;;;6185828;23;20036;-88
2021/12/08 05:58:03;;;;;;;2.85;1.30;;;6.40;96.30;;;;;;6161864;23;20082;-87
2021/12/08 06:01:21;;;;;;;;;;;;;;;;;;;;;
2021/12/08 06:03:55;;;;;;;6.07;1.67;;;6.40;96.10;;;;;;6155171;23;20085;-88
2021/12/08 06:06:25;;;;;;;5.05;1.42;;;6.40;96.10;;;;;;6106822;23;20105;-89
2021/12/08 06:09:07;;;;;;;;;;;;;;;;;;;;;
2021/12/08 06:11:36;;;;;;;6.40;1.73;;;6.30;96.00;;;;;;6188846;23;20080;-89
2021/12/08 06:14:09;;;;;;;7.03;1.20;;;6.30;96.00;;;;;;6209159;23;20485;-90
2021/12/08 06:16:40;;;;;;;5.25;1.35;;;6.30;96.00;;;;;;6213208;23;20017;-90
2021/12/08 06:19:26;;;;;;;;;;;;;;;;;;;;;
2021/12/08 06:22:19;;;;;;;3.33;1.30;;;6.30;95.90;;;;;;6205518;23;20016;-89
2021/12/08 06:24:50;;;;;;;6.20;1.48;;;6.30;95.80;;;;;;6161650;23;20009;-90
2021/12/08 06:27:24;;;;;;;7.72;1.75;;;6.30;95.80;;;;;;6186306;23;20013;-90
2021/12/08 06:29:59;;;;;;;3.58;1.08;;;6.30;95.80;;;;;;6188162;23;20003;-91
2021/12/08 06:32:38;;;;;;;5.75;1.30;;;6.20;95.80;;;;;;6186151;23;20543;-90
2021/12/08 06:35:09;;;;;;;3.83;1.77;;;6.20;95.80;;;;;;6186458;23;20009;-91
2021/12/08 06:37:41;;;;;;;6.32;1.50;;;6.20;95.80;;;;;;6136306;23;20450;-91
2021/12/08 06:40:17;;;;;;;;;;;6.20;95.70;;;;;;6186952;23;20089;-89
2021/12/08 06:42:46;;;;;;;4.60;1.27;;;6.20;95.70;;;;;;6185575;23;19907;-89
2021/12/08 06:45:20;;;;;;;6.22;1.30;;;6.20;95.70;;;;;;6185900;23;20485;-93
2021/12/08 06:47:48;;;;;;;3.10;1.15;;;6.20;95.70;;;;;;6186100;23;20009;-91
2021/12/08 06:53:45;;;;;;;4.88;1.40;;;6.20;95.60;;;;;;6166425;23;20009;-90
2021/12/08 06:57:04;;;;;;;4.55;1.15;;;6.20;95.60;;;;;;6164812;23;20069;-91
2021/12/08 06:59:39;;;;;;;5.43;1.40;;;6.20;95.70;;;;;;6128128;23;20006;-90
2021/12/08 07:02:31;;;;;;;4.82;1.30;;;6.20;95.70;;;;;;6128113;23;20038;-91
2021/12/08 07:05:29;;;;;;;5.40;1.38;;;6.20;95.60;;;;;;6177849;23;20005;-91
2021/12/08 07:08:10;;;;;;;8.70;1.77;;;6.20;95.60;;;;;;6164151;23;20013;-91
2021/12/08 07:11:02;;;;;;;5.07;1.75;;;6.20;95.50;;;;;;6165201;23;20421;-91
2021/12/08 07:13:51;;;;;;;6.25;1.67;;;6.20;95.50;;;;;;6184579;23;20016;-91
2021/12/08 07:24:01;;;;;;;8.18;1.40;;;6.10;95.50;;;;;;6178932;23;20001;-91
2021/12/08 07:27:00;;;;;;;8.63;2.42;;;6.10;95.50;;;;;;6137865;23;20020;-92
2021/12/08 07:30:13;;;;;;;;;;;;;;;;;;;;;
2021/12/08 07:33:19;;;;;;;;;;;;;;;;;;;;;
2021/12/08 07:36:38;;;;;;;7.40;2.20;;;6.00;95.30;;;;;;6190510;23;20044;-90
2021/12/08 07:39:52;;;;;;;7.32;2.08;;;6.00;95.30;;;;;;6177768;23;20024;-91
2021/12/08 07:43:11;;;;;;;;;;;;;;;;;;;;;
2021/12/08 07:48:47;;;;;;;5.22;1.75;;;6.00;95.30;;;;;;6198715;23;19993;-86
2021/12/08 07:51:19;;;;;;;5.95;1.50;;;6.00;95.30;;;;;;6185701;23;20020;-87
2021/12/08 07:53:55;;;;;;;5.45;1.60;;;6.00;95.20;;;;;;6167941;23;20020;-89
2021/12/08 07:57:07;;;;;;;;;;;;;;;;;;;;;
2021/12/08 08:00:29;;;;;;;5.68;2.05;;;5.90;95.20;;;;;;6169726;23;20084;-92
2021/12/08 08:03:17;;;;;;;5.35;2.08;;;5.90;95.30;;;;;;6124829;23;20005;-90
2021/12/08 08:06:38;;;;;;;;;;;;;;;;;;;;;
2021/12/08 08:09:39;;;;;;;;;;;;;;;;;;;;;
2021/12/08 08:12:29;;;;;;;;;;;5.90;95.20;;;;;;6186991;23;20087;-89
2021/12/08 08:15:36;;;;;;;7.00;1.65;;;5.90;95.20;;;;;;6162772;23;19919;-89
2021/12/08 08:18:33;;;;;;;7.10;1.83;;;5.90;95.20;;;;;;6162403;23;20405;-91
2021/12/08 08:21:06;;;;;;;4.72;1.63;;;5.90;95.30;;;;;;6186315;23;20374;-90
2021/12/08 08:23:39;;;;;;;6.68;1.80;;;5.90;95.20;;;;;;6161807;23;20005;-90
2021/12/08 08:26:10;;;;;;;7.07;1.90;;;5.90;95.20;;;;;;6139050;23;20016;-90
2021/12/08 08:28:52;;;;;;;8.23;2.17;;;5.90;95.20;;;;;;6161601;23;20416;-92
2021/12/08 08:31:58;;;;;;;7.38;1.83;;;5.90;95.20;;;;;;6163522;23;19998;-90
2021/12/08 08:34:40;;;;;;;10.02;2.38;;;5.90;95.20;;;;;;6163163;23;20009;-92
2021/12/08 08:37:13;;;;;;;7.82;1.90;;;5.90;95.20;;;;;;6140737;23;20005;-91
2021/12/08 08:39:47;;;;;;;6.13;1.98;;;6.00;95.20;;;;;;6163634;23;20012;-90
2021/12/08 08:42:25;;;;;;;9.02;3.88;;;5.90;95.20;;;;;;6162938;23;20412;-90
2021/12/08 08:45:18;;;;;;;7.18;3.50;;;6.00;95.20;;;;;;6180738;23;20077;-88
2021/12/08 08:47:59;;;;;;;5.70;2.00;;;6.00;95.20;;;;;;6205846;23;20001;-91
2021/12/08 08:55:19;;;;;;;7.75;2.05;;;6.00;95.20;;;;;;6205553;23;20048;-90
2021/12/08 08:57:46;;;;;;;8.53;1.63;;;6.10;95.20;;;;;;6191462;23;20004;-89
2021/12/08 09:00:25;;;;;;;5.35;1.30;;;6.10;95.20;;;;;;6172060;23;20233;-88
2021/12/08 09:02:54;;;;;;;6.30;2.17;;;6.10;95.20;;;;;;6164002;23;20028;-88
2021/12/08 09:05:43;;;;;;;4.47;1.30;;;6.10;95.10;;;;;;6163130;23;20005;-89
2021/12/08 09:08:11;;;;;;;5.75;2.00;;;6.10;95.00;;;;;;6187510;23;20028;-90
2021/12/08 09:10:56;;;;;;;7.50;2.22;;;6.10;95.20;;;;;;6189455;23;19997;-90
2021/12/08 09:13:41;;;;;;;7.57;1.52;;;6.10;94.90;;;;;;6204943;23;20009;-88
2021/12/08 09:16:31;;;;;;;6.30;2.08;;;6.10;94.80;;;;;;6188305;23;19989;-89
2021/12/08 09:32:42;;;;;;;4.60;1.30;;;6.10;94.60;;;;;;6215804;23;20020;-88
2021/12/08 09:36:13;;;;;;;;;;;;;;;;;;;;;
2021/12/08 09:38:49;;;;;;;4.43;1.67;;;6.10;94.60;;;;;;6156669;23;20495;-88
2021/12/08 09:41:26;;;;;;;7.80;1.77;;;6.10;94.60;;;;;;6132299;23;20037;-88
2021/12/08 09:44:09;;;;;;;5.60;2.33;;;6.10;94.60;;;;;;6134254;23;20006;-90
2021/12/08 09:47:07;;;;;;;8.55;2.20;;;6.20;94.60;;;;;;6131849;23;20006;-87
2021/12/08 09:49:40;;;;;;;3.65;1.90;;;6.20;94.60;;;;;;6153828;23;20097;-89
2021/12/08 09:52:16;;;;;;;7.22;1.83;;;6.20;94.60;;;;;;6131295;23;20080;-89
2021/12/08 09:54:42;;;;;;;5.82;1.83;;;6.30;94.50;;;;;;6131518;23;20422;-89
2021/12/08 09:57:18;;;;;;;6.95;1.95;;;6.30;94.50;;;;;;6131055;23;20002;-89
2021/12/08 10:00:05;;;;;;;7.55;2.00;;;6.40;94.50;;;;;;6108697;23;20088;-88
2021/12/08 10:02:35;;;;;;;6.45;1.67;;;6.40;94.50;;;;;;6134300;23;20020;-91
2021/12/08 10:05:14;;;;;;;6.20;2.00;;;6.40;94.50;;;;;;6131427;23;20006;-91
2021/12/08 10:07:45;;;;;;;5.05;1.67;;;6.40;94.50;;;;;;6132617;23;20009;-91
2021/12/08 10:10:38;;;;;;;5.40;1.73;;;6.40;94.50;;;;;;6134560;23;20025;-90
2021/12/08 10:13:52;;;;;;;6.90;2.35;;;6.50;94.40;;;;;;6131538;23;20060;-88
2021/12/08 10:16:54;;;;;;;5.13;1.83;;;6.50;94.40;;;;;;6155996;23;20105;-88
2021/12/08 10:19:30;;;;;;;;;;;;;;;;;;;;;
2021/12/08 10:22:03;;;;;;;5.25;1.55;;;6.50;94.40;;;;;;6217927;23;20111;-89
2021/12/08 10:24:59;;;;;;;6.15;1.45;;;6.50;94.30;;;;;;6192907;23;20020;-89
2021/12/08 10:27:27;;;;;;;4.80;1.92;;;6.50;94.30;;;;;;6191071;23;20011;-89
2021/12/08 10:30:24;;;;;;;6.68;1.85;;;6.50;94.20;;;;;;6191481;23;20465;-90
2021/12/08 10:33:59;;;;;;;5.60;1.70;;;6.60;94.20;;;;;;6217200;23;20070;-89
2021/12/08 10:39:28;;;;;;;8.35;2.10;;;6.60;94.10;;;;;;6219624;23;20458;-89
2021/12/08 10:42:22;;;;;;;5.80;2.63;;;6.70;94.10;;;;;;6208224;22;20011;-91
2021/12/08 10:45:14;;;;;;;6.22;1.90;;;6.70;94.00;;;;;;6219414;22;19985;-90
2021/12/08 10:47:53;;;;;;;5.65;1.67;;;6.80;94.00;;;;;;6214703;23;20004;-89
2021/12/08 10:56:47;;;;;;;7.57;1.73;;;6.80;93.80;;;;;;6220907;23;20020;-90
2021/12/08 10:59:21;;;;;;;5.32;1.50;;;6.90;93.80;;;;;;6194024;23;19994;-88
2021/12/08 11:02:09;;;;;;;;;;;;;;;;;;;;;
2021/12/08 11:04:48;;;;;;;5.03;1.55;;;6.90;93.80;;;;;;6195598;23;20529;-88
2021/12/08 11:07:24;;;;;;;4.78;1.42;;;7.00;93.80;;;;;;6194976;23;20012;-89
2021/12/08 11:09:55;;;;;;;3.50;1.20;;;7.00;93.80;;;;;;6192128;23;20005;-87
2021/12/08 11:12:48;;;;;;;2.78;1.25;;;7.00;93.80;;;;;;6194388;23;20377;-89
2021/12/08 11:16:05;;;;;;;5.25;1.50;;;7.10;93.80;;;;;;6192291;23;20012;-89
2021/12/08 11:18:40;;;;;;;4.95;1.70;;;7.10;93.80;;;;;;6197970;23;20000;-89
2021/12/08 11:21:20;;;;;;;13.25;2.17;;;7.20;93.80;;;;;;6171144;23;20049;-88
2021/12/08 11:23:55;;;;;;;3.67;1.50;;;7.20;93.70;;;;;;6219515;23;20067;-87
2021/12/08 11:26:47;;;;;;;;;;;;;;;;;;;;;
2021/12/08 11:29:45;;;;;;;6.70;1.77;;;7.20;93.60;;;;;;6223367;23;20029;-92
2021/12/08 11:33:23;;;;;;;5.30;1.88;;;7.20;93.60;;;;;;6196769;23;20051;-89
2021/12/08 11:36:11;;;;;;;9.25;1.98;;;7.20;93.60;;;;;;6203094;23;20013;-90
2021/12/08 11:39:32;;;;;;;6.68;1.50;;;7.20;93.60;;;;;;6186948;23;20008;-93
2021/12/08 11:42:29;;;;;;;5.22;1.60;;;7.20;93.50;;;;;;6174464;23;20004;-90
2021/12/08 11:45:24;;;;;;;7.38;1.95;;;7.30;93.40;;;;;;6189168;23;20044;-91
2021/12/08 11:48:42;;;;;;;;;;;;;;;;;;;;;
2021/12/08 11:51:58;;;;;;;5.32;1.30;;;7.20;93.40;;;;;;6223593;23;20027;-90
2021/12/08 12:01:24;;;;;;;;;;;;;;;;;;;;;
2021/12/08 12:04:25;;;;;;;;;;;;;;;;;;;;;
2021/12/08 12:07:27;;;;;;;4.63;2.00;;;7.30;93.30;;;;;;6240106;23;20000;-89
2021/12/08 12:21:34;;;;;;;6.15;3.03;;;7.30;93.30;;;;;;6111747;23;20077;-89
2021/12/08 12:25:04;;;;;;;7.22;3.88;;;7.30;93.30;;;;;;6220544;23;20096;-89
2021/12/08 12:32:27;;;;;;;;;;;;;;;;;;;;;
2021/12/08 12:39:13;;;;;;;5.57;1.63;;;7.30;93.30;;;;;;6040996;23;20011;-90
2021/12/08 12:42:13;;;;;;;5.05;1.55;;;7.30;93.30;;;;;;6067590;23;20017;-90
2021/12/08 12:45:06;;;;;;;5.35;1.70;;;7.30;93.30;;;;;;6099255;23;20034;-89
2021/12/08 12:47:40;;;;;;;3.85;1.80;;;7.30;93.20;;;;;;6109829;23;20087;-90
2021/12/08 12:50:41;;;;;;;;;;;;;;;;;;;;;
2021/12/08 12:53:37;;;;;;;;;;;7.30;93.20;;;;;;6189530;23;20076;-89
2021/12/08 12:56:46;;;;;;;;;;;;;;;;;;;;;
2021/12/08 13:00:11;;;;;;;3.75;1.60;;;7.40;93.20;;;;;;6189193;23;20056;-90
2021/12/08 13:07:03;;;;;;;;;;;;;;;;;;;;;
2021/12/08 13:14:21;;;;;;;;;;;;;;;;;;;;;
2021/12/08 13:27:13;;;;;;;;;;;7.40;93.00;;;;;;6165240;23;20024;-90
2021/12/08 13:30:43;;;;;;;;;;;;;;;;;;;;;
2021/12/08 13:34:04;;;;;;;;;;;;;;;;;;;;;
2021/12/08 13:36:55;;;;;;;5.43;1.60;;;7.40;92.90;;;;;;6187505;23;20124;-87
2021/12/08 13:39:38;;;;;;;4.88;1.70;;;7.40;92.90;;;;;;6190133;23;19997;-90
2021/12/08 13:42:30;;;;;;;5.38;1.63;;;7.40;92.90;;;;;;6189362;23;20016;-88
2021/12/08 13:45:23;;;;;;;4.13;1.42;;;7.40;92.90;;;;;;6213572;23;20012;-88
2021/12/08 13:48:11;;;;;;;3.75;1.50;;;7.40;92.80;;;;;;6226767;23;20005;-90
2021/12/08 13:50:49;;;;;;;6.18;1.52;;;7.40;92.80;;;;;;6212748;23;20052;-88
2021/12/08 13:56:43;;;;;;;4.35;1.42;;;7.40;92.90;;;;;;6192657;23;20025;-86
2021/12/08 13:59:51;;;;;;;4.63;1.58;;;7.40;92.70;;;;;;6214627;23;20005;-90
2021/12/08 14:02:37;;;;;;;3.35;1.60;;;7.40;92.70;;;;;;6213649;23;20088;-90
2021/12/08 14:08:46;;;;;;;5.55;1.25;;;7.40;92.70;;;;;;6188981;23;20007;-90
2021/12/08 14:11:58;;;;;;;6.72;1.50;;;7.40;92.70;;;;;;6212499;23;20008;-91
2021/12/08 14:14:14;;;;;;;4.15;1.67;;;7.30;92.60;;;;;;6181072;23;20339;-88
2021/12/08 14:16:40;;;;;;;5.53;1.95;;;7.30;92.60;;;;;;6212817;23;20005;-89
2021/12/08 14:19:41;;;;;;;6.07;1.40;;;7.30;92.60;;;;;;6189776;23;20008;-90
2021/12/08 14:22:43;;;;;;;6.88;1.90;;;7.30;92.60;;;;;;6188723;23;20009;-88
2021/12/08 14:25:28;;;;;;;4.97;1.13;;;7.30;92.70;;;;;;6183512;23;20014;-88
2021/12/08 14:27:59;;;;;;;5.35;1.70;;;7.20;92.60;;;;;;6184417;23;20006;-89
2021/12/08 14:30:34;;;;;;;6.28;1.63;;;7.20;92.60;;;;;;6183802;23;20424;-88
2021/12/08 14:33:18;;;;;;;6.28;1.58;;;7.20;92.70;;;;;;6159112;23;19998;-88
2021/12/08 14:36:06;;;;;;;6.72;1.55;;;7.20;92.70;;;;;;6182919;23;20013;-87
2021/12/08 14:39:03;;;;;;;;;;;;;;;;;;;;;
2021/12/08 14:41:52;;;;;;;4.60;1.52;;;7.00;92.70;;;;;;6161144;23;20069;-89
2021/12/08 14:45:24;;;;;;;;;;;;;;;;;;;;;
2021/12/08 14:58:32;;;;;;;4.68;1.45;;;6.90;92.70;;;;;;6142425;23;20021;-88
2021/12/08 15:01:20;;;;;;;6.90;1.67;;;6.90;92.70;;;;;;6159528;23;20008;-89
2021/12/08 15:08:01;;;;;;;;;;;;;;;;;;;;;
2021/12/08 15:11:21;;;;;;;;;;;;;;;;;;;;;
2021/12/08 15:14:39;;;;;;;;;;;;;;;;;;;;;
2021/12/08 15:21:10;;;;;;;;;;;;;;;;;;;;;
2021/12/08 15:24:10;;;;;;;;;;;;;;;;;;;;;
2021/12/08 15:27:22;;;;;;;4.50;2.30;;;6.50;92.90;;;;;;6219413;23;19997;-88
2021/12/08 15:30:30;;;;;;;7.78;2.08;;;6.50;93.00;;;;;;6209998;23;20423;-88
2021/12/08 15:33:34;;;;;;;5.00;1.90;;;6.50;93.00;;;;;;6142593;23;20002;-89
2021/12/08 15:40:14;;;;;;;;;;;;;;;;;;;;;
2021/12/08 15:43:00;;;;;;;4.03;1.70;;;6.30;93.10;;;;;;6070238;23;20087;-88
2021/12/08 15:45:38;;;;;;;4.05;1.60;;;6.30;93.20;;;;;;6129411;23;20014;-90
2021/12/08 15:48:34;;;;;;;7.18;2.05;;;6.30;93.20;;;;;;6081921;23;20383;-88
2021/12/08 15:51:36;;;;;;;2.80;1.85;;;6.20;93.20;;;;;;6077531;23;20081;-89
2021/12/08 15:54:27;;;;;;;6.93;2.20;;;6.20;93.30;;;;;;6125917;23;20018;-89
2021/12/08 15:57:44;;;;;;;10.82;2.25;;;6.10;93.30;;;;;;6106294;23;20013;-89
2021/12/08 16:03:41;;;;;;;5.60;1.95;;;6.00;93.40;;;;;;6018001;23;20003;-88
2021/12/08 16:09:52;;;;;;;;;;;;;;;;;;;;;
2021/12/08 16:13:01;;;;;;;5.07;2.05;;;5.80;93.50;;;;;;6174179;23;20409;-88
2021/12/08 16:15:59;;;;;;;11.32;2.80;;;5.80;93.50;;;;;;6155879;23;20073;-86
2021/12/08 16:21:52;;;;;;;;;;;;;;;;;;;;;
2021/12/08 16:27:55;;;;;;;4.32;2.33;;;5.60;93.60;;;;;;6184673;23;20035;-86
2021/12/08 16:46:15;;;;;;;8.27;2.88;;;5.30;93.80;;;;;;6189907;23;20035;-87
2021/12/08 16:52:28;;;;;;;;;;;;;;;;;;;;;
2021/12/08 16:58:32;;;;;;;;;;;;;;;;;;;;;
2021/12/08 17:04:51;;;;;;;7.25;2.83;;;5.10;94.10;;;;;;6128426;23;20010;-86
2021/12/08 17:07:51;;;;;;;5.93;3.15;;;5.10;94.10;;;;;;6187248;23;20001;-88
2021/12/08 17:10:25;;;;;;;5.45;3.45;;;5.10;94.10;;;;;;6160864;23;20017;-88
2021/12/08 17:12:53;;;;;;;7.40;3.72;;;5.10;94.10;;;;;;6161262;23;20009;-87
2021/12/08 17:15:35;;;;;;;;;;;;;;;;;;;;;
2021/12/08 17:18:28;;;;;;;5.25;2.60;;;5.00;94.20;;;;;;6188307;23;20080;-87
2021/12/08 17:20:57;;;;;;;8.25;3.22;;;5.00;94.20;;;;;;6186841;23;20044;-91
2021/12/08 17:26:52;;;;;;;;;;;;;;;;;;;;;
2021/12/08 17:32:25;;;;;;;6.95;2.60;;;5.10;94.30;;;;;;6192338;23;20079;-89
2021/12/08 17:35:19;;;;;;;8.00;2.88;;;5.00;94.30;;;;;;6163422;23;20043;-88
2021/12/08 17:38:08;;;;;;;;;;;;;;;;;;;;;
2021/12/08 17:40:37;;;;;;;5.40;2.70;;;5.00;94.30;;;;;;6217788;23;20083;-88
2021/12/08 17:43:14;;;;;;;;;;;;;;;;;;;;;
2021/12/08 17:45:55;;;;;;;8.02;3.17;;;4.90;94.30;;;;;;6218053;23;20502;-88
2021/12/08 17:48:44;;;;;;;6.75;3.08;;;4.90;94.30;;;;;;6217262;23;19997;-88
2021/12/08 17:51:16;;;;;;;5.32;2.80;;;4.90;94.30;;;;;;6191510;23;20004;-87
2021/12/08 17:54:10;;;;;;;6.80;3.13;;;4.90;94.40;;;;;;6191206;23;20008;-88
2021/12/08 17:57:10;;;;;;;5.40;2.65;;;4.90;94.40;;;;;;6191339;23;20000;-87
2021/12/08 17:59:47;;;;;;;7.03;2.70;;;4.80;94.40;;;;;;6191599;23;20004;-88
2021/12/08 18:02:23;;;;;;;4.18;2.47;;;4.80;94.40;;;;;;6167497;23;20005;-87
2021/12/08 18:04:58;;;;;;;5.57;3.10;;;4.80;94.40;;;;;;6191980;23;20431;-86
2021/12/08 18:07:34;;;;;;;;;;;;;;;;;;;;;
2021/12/08 18:10:10;;;;;;;5.75;2.80;;;4.80;94.40;;;;;;6194310;23;20087;-88
2021/12/08 18:12:49;;;;;;;5.72;2.85;;;4.80;94.40;;;;;;6191914;23;20022;-87
2021/12/08 18:15:30;;;;;;;5.43;3.35;;;4.80;94.50;;;;;;6191485;23;20005;-86
2021/12/08 18:18:19;;;;;;;6.88;3.08;;;4.70;94.50;;;;;;6214214;23;20047;-88
2021/12/08 18:20:48;;;;;;;8.18;3.47;;;4.70;94.50;;;;;;6243749;22;19981;-87
2021/12/08 18:23:29;;;;;;;;;;;;;;;;;;;;;
2021/12/08 18:26:08;;;;;;;6.25;2.70;;;4.60;94.50;;;;;;6218977;23;19995;-89
2021/12/08 18:28:37;;;;;;;8.05;3.22;;;4.60;94.50;;;;;;6209698;23;20096;-87
2021/12/08 18:31:10;;;;;;;5.32;2.80;;;4.60;94.50;;;;;;6198558;23;20000;-87
2021/12/08 18:34:04;;;;;;;10.25;3.42;;;4.60;94.60;;;;;;6190186;23;19996;-87